California Correctional Inst, California
Current Conditions -  °F | °C
As of 12:15 PM on Saturday 20 Dec 2014 (Local Time) from KTSP Reporting Station
Haze Haze  
Wind Chill: 41°   Ceiling: 2300
Heat Index: 46°   Visibility: 4mi
Dew Point: 45°   Wind: 10mph
Humidity: 93%   Direction: 310°NW
Pressure: 30.2"   Gusts: NA
Location:  35.1338°N, 118.552°W
Report Text: KTSP 202015Z AUTO 31009KT 4SM BR BKN023 OVC030 08/07 A3020 RMK AO2
Loading
Personal Weather Stations






























Interactive Weather Map New forecast layout! Learn more

10-Day Weather Forecast

Advertisements
Track Severe Weather on mobile